Etusivu
METAR-TAF:

METAR-TAF

Lentoasemat :

Orange_County_Airport

Orange, Texas, Yhdysvallat

Leveyspiiri: 30-04-09N, Pituuspiiri: 093-48-13W, korkeus merenpinnasta: 4 m

Tämänhetkinen sää

Tämä raportti tehtiin 24 minuuttia sitten, kello 04.35 UTC
tyyntä
Lämpötila 23°C
Kosteus 94%
Ilmanpaine 1019 hPa
Näkyvyys: 11.3 km
selkeää

METAR: KORG 310435Z AUTO 00000KT 7SM CLR 23/22 A3008 RMK AO2 T02320221

Aika: 23:59 (04:59 UTC)


TAF: puuttuu

Säähavainnot ja -ennusteet yli 4000 lentoasemalta (METAR- ja TAF-raportit).

Käytössä olevat sääasemat on merkitty karttaan keltaisilla ja punaisilla pisteillä.

Aseta hiiri pisteen päälle nähdäksesi sääaseman nimen.

Klikkaa sitten nähdäksesi säähavainnot ja -ennusteet.

Kartan vaihtaminen: klikkaa mustalla rastilla varustettuja vihreitä pisteitä, niin voit zoomata sisään; viivalla varustettua vihreää pistettä, niin voit zoomata ulos tai vihreitä nuolia, niin pääset viereisille kartoille.


METAR-TAF: